Time;durP1;ratioP1;P1;durP2;ratioP2;P2;SDS_P1;SDS_P2;PMS_P1;PMS_P2;Temp;Humidity;BMP_temperature;BMP_pressure;BME280_temperature;BME280_humidity;BME280_pressure;Samples;Min_cycle;Max_cycle;Signal;HPM_P1;HPM_P2
2021/04/03 00:02:36;;;;;;;78.10;22.05;;;3.10;99.90;;;;;;8293833;28;20033;-65
2021/04/03 00:06:36;;;;;;;77.70;21.70;;;3.20;99.90;;;;;;8276453;28;20132;-65
2021/04/03 00:10:38;;;;;;;78.72;22.15;;;3.40;99.90;;;;;;8293824;28;20025;-66
2021/04/03 00:14:39;;;;;;;77.18;21.88;;;3.20;99.90;;;;;;8293531;28;20045;-65
2021/04/03 00:18:39;;;;;;;77.18;21.75;;;3.20;99.90;;;;;;8293742;28;20120;-65
2021/04/03 00:22:41;;;;;;;78.40;22.05;;;3.30;99.90;;;;;;8293338;28;20026;-65
2021/04/03 00:26:41;;;;;;;79.07;22.25;;;3.30;99.90;;;;;;8293582;28;20041;-65
2021/04/03 00:30:42;;;;;;;79.18;22.10;;;3.20;99.90;;;;;;8292247;28;20030;-65
2021/04/03 00:34:43;;;;;;;79.70;21.98;;;2.90;99.90;;;;;;8293266;28;20038;-65
2021/04/03 00:38:43;;;;;;;81.28;22.23;;;2.80;99.90;;;;;;8293523;28;20030;-65
2021/04/03 00:42:44;;;;;;;81.63;22.42;;;2.70;99.90;;;;;;8292874;28;20038;-65
2021/04/03 00:46:45;;;;;;;78.88;22.05;;;2.70;99.90;;;;;;8293424;28;20057;-65
2021/04/03 00:50:48;;;;;;;79.38;22.20;;;2.60;99.90;;;;;;8293439;28;20034;-65
2021/04/03 00:54:49;;;;;;;79.75;22.13;;;2.70;99.90;;;;;;8293123;28;20026;-65
2021/04/03 00:58:50;;;;;;;79.07;22.10;;;2.80;99.90;;;;;;8293215;28;20034;-65
2021/04/03 01:02:50;;;;;;;79.20;22.35;;;3.00;99.90;;;;;;8291742;28;20041;-66
2021/04/03 01:06:51;;;;;;;80.78;22.33;;;3.30;99.90;;;;;;8294752;28;20022;-65
2021/04/03 01:10:54;;;;;;;80.43;22.00;;;3.40;99.90;;;;;;8298711;28;20026;-66
2021/04/03 01:15:07;;;;;;;79.22;22.08;;;3.60;99.90;;;;;;8298612;28;20030;-65
2021/04/03 01:19:25;;;;;;;75.93;21.52;;;3.80;99.90;;;;;;8298379;28;20044;-65
2021/04/03 01:23:54;;;;;;;73.10;21.30;;;4.00;99.90;;;;;;8298204;28;20042;-65
2021/04/03 01:28:16;;;;;;;72.32;21.20;;;4.00;99.90;;;;;;8298335;28;20107;-65
2021/04/03 01:32:24;;;;;;;70.80;21.02;;;4.10;99.90;;;;;;8288585;28;20026;-65
2021/04/03 01:36:28;;;;;;;71.70;21.13;;;4.10;99.90;;;;;;8265719;28;20366;-65
2021/04/03 01:40:31;;;;;;;71.82;21.00;;;4.20;99.90;;;;;;8247783;28;20527;-65
2021/04/03 01:44:54;;;;;;;71.03;21.33;;;4.20;99.90;;;;;;8265061;28;20397;-65
2021/04/03 01:48:57;;;;;;;72.22;21.13;;;4.20;99.90;;;;;;8265144;28;20022;-66
2021/04/03 01:52:58;;;;;;;71.68;21.10;;;4.20;99.90;;;;;;8290076;28;20030;-65
2021/04/03 01:57:00;;;;;;;71.57;21.25;;;4.20;99.90;;;;;;8297093;28;20164;-65
2021/04/03 02:01:01;;;;;;;71.60;21.08;;;4.20;99.90;;;;;;8297204;28;20029;-65
2021/04/03 02:05:02;;;;;;;72.13;21.25;;;4.20;99.90;;;;;;8278548;28;20069;-65
2021/04/03 02:09:04;;;;;;;71.38;21.17;;;4.10;99.90;;;;;;8279601;28;20084;-65
2021/04/03 02:13:06;;;;;;;71.13;21.40;;;4.20;99.90;;;;;;8279026;28;20029;-65
2021/04/03 02:17:08;;;;;;;72.32;21.38;;;4.10;99.90;;;;;;8278578;28;20034;-66
2021/04/03 02:21:09;;;;;;;70.90;20.98;;;4.10;99.90;;;;;;8296058;28;20037;-66
2021/04/03 02:25:12;;;;;;;71.28;21.27;;;4.10;99.90;;;;;;8278666;28;20038;-65
2021/04/03 02:29:13;;;;;;;71.00;21.27;;;4.30;99.90;;;;;;8296269;28;20021;-65
2021/04/03 02:33:14;;;;;;;70.43;21.13;;;4.30;99.90;;;;;;8296096;28;20400;-65
2021/04/03 02:37:14;;;;;;;71.00;21.40;;;4.20;99.90;;;;;;8295155;28;20064;-65
2021/04/03 02:41:19;;;;;;;71.50;21.33;;;4.20;99.90;;;;;;8295846;28;20034;-65
2021/04/03 02:45:23;;;;;;;71.40;21.48;;;4.10;99.90;;;;;;8295584;28;20109;-65
2021/04/03 02:49:49;;;;;;;70.50;21.40;;;4.10;99.90;;;;;;8295832;28;20070;-65
2021/04/03 02:53:51;;;;;;;69.75;21.17;;;4.10;99.90;;;;;;8295512;28;20037;-65
2021/04/03 02:57:52;;;;;;;70.22;21.38;;;4.10;99.90;;;;;;8295484;28;20109;-65
2021/04/03 03:01:56;;;;;;;70.10;21.15;;;4.20;99.90;;;;;;8277771;28;20026;-65
2021/04/03 03:05:58;;;;;;;70.10;21.48;;;4.10;99.90;;;;;;8295157;28;20096;-65
2021/04/03 03:09:59;;;;;;;71.63;21.25;;;3.90;99.90;;;;;;8294258;28;20075;-65
2021/04/03 03:14:00;;;;;;;76.43;21.80;;;4.20;99.90;;;;;;8277211;28;20038;-65
2021/04/03 03:18:03;;;;;;;76.07;21.70;;;4.00;99.90;;;;;;8294959;28;20042;-65
2021/04/03 03:22:08;;;;;;;75.32;21.60;;;3.80;99.90;;;;;;8294786;28;20164;-65
2021/04/03 03:26:09;;;;;;;76.03;21.45;;;3.80;99.90;;;;;;8294820;28;20041;-65
2021/04/03 03:30:11;;;;;;;74.88;21.48;;;3.80;99.90;;;;;;8294432;28;20485;-65
2021/04/03 03:34:12;;;;;;;73.95;21.15;;;3.70;99.90;;;;;;8276897;28;20034;-65
2021/04/03 03:38:12;;;;;;;74.35;21.50;;;3.80;99.90;;;;;;8294521;28;20041;-65
2021/04/03 03:42:14;;;;;;;73.50;21.77;;;3.70;99.90;;;;;;8293226;28;20034;-65
2021/04/03 03:46:15;;;;;;;74.18;21.38;;;3.80;99.90;;;;;;8294208;28;20057;-65
2021/04/03 03:50:16;;;;;;;75.07;21.58;;;3.80;99.90;;;;;;8294288;28;20032;-65
2021/04/03 03:54:16;;;;;;;74.18;21.35;;;3.80;99.90;;;;;;8293994;28;20057;-65
2021/04/03 03:58:17;;;;;;;73.43;21.58;;;3.70;99.90;;;;;;8294051;28;20026;-66
2021/04/03 04:02:17;;;;;;;73.47;21.67;;;3.90;99.90;;;;;;8276350;28;20502;-66
2021/04/03 04:06:18;;;;;;;72.50;21.25;;;3.80;99.90;;;;;;8293956;28;20492;-66
2021/04/03 04:10:19;;;;;;;74.35;21.63;;;3.70;99.90;;;;;;8276234;28;20034;-65
2021/04/03 04:14:19;;;;;;;76.43;21.60;;;3.80;99.90;;;;;;8292816;28;20022;-65
2021/04/03 04:18:20;;;;;;;79.90;21.65;;;3.70;99.90;;;;;;8293837;28;20050;-65
2021/04/03 04:22:21;;;;;;;81.35;22.23;;;3.60;99.90;;;;;;8293685;28;20026;-65
2021/04/03 04:26:21;;;;;;;81.07;22.15;;;3.40;99.90;;;;;;8275899;28;20034;-66
2021/04/03 04:30:22;;;;;;;78.18;21.88;;;3.20;99.90;;;;;;8293667;28;20030;-64
2021/04/03 04:34:22;;;;;;;78.93;22.25;;;3.20;99.90;;;;;;8293531;28;20065;-64
2021/04/03 04:38:23;;;;;;;78.05;22.08;;;3.00;99.90;;;;;;8292910;28;20750;-64
2021/04/03 04:42:24;;;;;;;78.57;22.30;;;2.80;99.90;;;;;;8294953;28;20069;-65
2021/04/03 04:46:26;;;;;;;78.38;21.92;;;2.80;99.90;;;;;;8296629;28;20048;-64
2021/04/03 04:50:26;;;;;;;80.38;22.42;;;2.70;99.90;;;;;;8298486;28;20400;-65
2021/04/03 04:54:27;;;;;;;79.45;22.10;;;2.90;99.90;;;;;;8298058;28;20036;-64
2021/04/03 04:58:27;;;;;;;77.95;22.10;;;2.90;99.90;;;;;;8298368;28;20457;-65
2021/04/03 05:02:28;;;;;;;77.80;21.88;;;2.80;99.90;;;;;;8297714;28;20030;-65
2021/04/03 05:06:28;;;;;;;78.57;22.05;;;2.70;99.90;;;;;;8298044;28;20077;-64
2021/04/03 05:10:29;;;;;;;80.00;22.30;;;2.70;99.90;;;;;;8297222;28;20026;-65
2021/04/03 05:14:30;;;;;;;79.95;21.98;;;2.70;99.90;;;;;;8298241;28;20061;-64
2021/04/03 05:18:31;;;;;;;80.03;22.20;;;2.80;99.90;;;;;;8280023;28;20396;-65
2021/04/03 05:22:31;;;;;;;81.03;22.45;;;2.70;99.90;;;;;;8297249;28;20041;-65
2021/04/03 05:26:32;;;;;;;80.75;22.30;;;2.70;99.90;;;;;;8279959;28;20017;-65
2021/04/03 05:30:32;;;;;;;81.35;22.30;;;2.70;99.90;;;;;;8296370;28;21265;-66
2021/04/03 05:34:33;;;;;;;81.20;22.27;;;2.80;99.90;;;;;;8278917;28;20121;-65
2021/04/03 05:38:33;;;;;;;82.32;22.02;;;3.10;99.90;;;;;;8297852;28;20053;-66
2021/04/03 05:42:35;;;;;;;82.10;22.23;;;3.00;99.90;;;;;;8295749;28;20029;-65
2021/04/03 05:46:39;;;;;;;82.18;22.30;;;3.20;99.90;;;;;;8279218;28;20029;-65
2021/04/03 05:50:40;;;;;;;81.90;22.33;;;3.20;99.90;;;;;;8296162;28;20447;-65
2021/04/03 05:54:41;;;;;;;82.93;22.45;;;3.00;99.90;;;;;;8279290;28;20037;-65
2021/04/03 05:58:42;;;;;;;82.43;22.45;;;2.90;99.90;;;;;;8296460;28;20441;-65
2021/04/03 06:02:42;;;;;;;82.95;22.38;;;2.80;99.90;;;;;;8295169;28;20041;-65
2021/04/03 06:06:43;;;;;;;82.97;22.38;;;3.10;99.90;;;;;;8276644;28;20029;-65
2021/04/03 06:11:08;;;;;;;75.20;21.55;;;3.40;99.90;;;;;;8277187;28;20038;-65
2021/04/03 06:15:15;;;;;;;61.60;20.90;;;5.00;99.90;;;;;;8294932;28;20056;-67
2021/04/03 06:19:23;;;;;;;57.40;20.05;;;6.40;99.90;;;;;;8295283;28;20451;-66
2021/04/03 06:23:31;;;;;;;56.22;20.25;;;6.60;99.90;;;;;;8272437;28;20026;-64
2021/04/03 06:27:31;;;;;;;55.40;20.02;;;7.00;99.90;;;;;;8287308;28;20010;-66
2021/04/03 06:31:39;;;;;;;55.65;20.42;;;7.20;99.90;;;;;;8290266;28;20040;-66
2021/04/03 06:35:40;;;;;;;54.05;19.67;;;7.10;99.90;;;;;;8291613;28;20026;-66
2021/04/03 06:39:53;;;;;;;53.83;19.73;;;6.90;99.90;;;;;;8274358;28;20443;-65
2021/04/03 06:44:07;;;;;;;54.15;19.83;;;7.20;99.90;;;;;;8294759;28;20049;-66
2021/04/03 06:48:08;;;;;;;53.83;19.52;;;7.50;99.90;;;;;;8295731;28;20038;-65
2021/04/03 06:52:09;;;;;;;54.08;20.27;;;7.50;99.90;;;;;;8294193;28;20399;-65
2021/04/03 06:56:10;;;;;;;54.72;20.42;;;7.70;99.90;;;;;;8290073;28;20044;-66
2021/04/03 07:00:13;;;;;;;53.08;19.63;;;8.00;99.90;;;;;;8291391;28;20041;-66
2021/04/03 07:04:25;;;;;;;53.90;19.85;;;8.10;99.90;;;;;;8290910;28;20475;-63
2021/04/03 07:08:27;;;;;;;53.58;20.05;;;8.40;99.90;;;;;;8292478;28;20492;-63
2021/04/03 07:12:29;;;;;;;54.08;20.00;;;8.70;99.90;;;;;;8290894;28;20056;-62
2021/04/03 07:16:30;;;;;;;54.30;20.02;;;8.90;99.90;;;;;;8293999;28;20629;-62
2021/04/03 07:20:31;;;;;;;54.20;19.98;;;8.80;99.90;;;;;;8294399;28;20041;-61
2021/04/03 07:24:35;;;;;;;55.70;20.85;;;8.50;99.90;;;;;;8275659;28;20037;-63
2021/04/03 07:28:37;;;;;;;55.50;20.10;;;8.10;99.90;;;;;;8291895;28;20022;-63
2021/04/03 07:32:42;;;;;;;55.95;20.55;;;8.20;99.90;;;;;;8294394;28;20022;-62
2021/04/03 07:36:43;;;;;;;55.08;20.17;;;8.30;99.90;;;;;;8293756;28;20072;-62
2021/04/03 07:41:00;;;;;;;54.72;20.23;;;8.10;99.90;;;;;;8293564;28;20021;-63
2021/04/03 07:45:05;;;;;;;56.60;20.95;;;7.40;99.90;;;;;;8291260;28;20612;-62
2021/04/03 07:49:07;;;;;;;55.38;20.23;;;7.70;99.90;;;;;;8287240;28;20022;-62
2021/04/03 07:53:09;;;;;;;55.70;20.50;;;8.30;99.90;;;;;;8293110;28;20092;-63
2021/04/03 07:57:10;;;;;;;56.13;20.45;;;8.40;99.90;;;;;;8275850;28;20026;-61
2021/04/03 08:01:11;;;;;;;55.92;20.23;;;8.40;99.90;;;;;;8288035;28;20054;-62
2021/04/03 08:05:12;;;;;;;56.67;20.77;;;7.90;99.90;;;;;;8291256;28;20041;-62
2021/04/03 08:09:16;;;;;;;56.28;20.40;;;7.80;99.90;;;;;;8290689;28;20030;-62
2021/04/03 08:13:18;;;;;;;56.63;20.92;;;7.90;99.90;;;;;;8274753;28;20768;-63
2021/04/03 08:17:20;;;;;;;56.75;20.42;;;8.00;99.90;;;;;;8290648;28;20079;-62
2021/04/03 08:21:22;;;;;;;56.75;20.85;;;8.10;99.90;;;;;;8293262;28;20038;-62
2021/04/03 08:25:23;;;;;;;56.38;20.27;;;8.10;99.90;;;;;;8295948;28;20034;-63
2021/04/03 08:29:36;;;;;;;56.33;20.65;;;7.90;99.90;;;;;;8292305;28;21345;-60
2021/04/03 08:33:40;;;;;;;56.75;20.80;;;7.80;99.90;;;;;;8277672;28;20057;-62
2021/04/03 08:38:07;;;;;;;57.22;20.65;;;7.80;99.90;;;;;;8277018;28;20034;-61
2021/04/03 08:42:09;;;;;;;57.97;21.10;;;7.90;99.90;;;;;;8296265;28;20563;-62
2021/04/03 08:46:14;;;;;;;57.63;20.58;;;8.40;99.90;;;;;;8297298;28;20042;-62
2021/04/03 08:50:17;;;;;;;57.05;20.60;;;8.80;99.90;;;;;;8291326;28;20097;-62
2021/04/03 08:54:18;;;;;;;56.33;20.30;;;9.00;97.70;;;;;;8278683;28;20493;-62
2021/04/03 08:58:21;;;;;;;57.60;20.67;;;8.80;94.00;;;;;;8279627;28;20048;-62
2021/04/03 09:02:21;;;;;;;57.38;21.05;;;8.70;93.70;;;;;;8276842;28;20030;-62
2021/04/03 09:06:45;;;;;;;57.05;21.15;;;8.90;90.80;;;;;;8291735;28;20046;-62
2021/04/03 09:10:55;;;;;;;57.80;20.42;;;8.90;95.80;;;;;;8282949;28;20500;-63
2021/04/03 09:14:56;;;;;;;59.97;21.23;;;9.80;94.10;;;;;;8277948;28;20112;-63
2021/04/03 09:18:57;;;;;;;60.42;21.42;;;10.70;95.40;;;;;;8296734;28;20489;-62
2021/04/03 09:23:06;;;;;;;60.15;21.30;;;11.20;90.60;;;;;;8289323;28;20022;-63
2021/04/03 09:27:18;;;;;;;59.63;21.00;;;11.10;90.20;;;;;;8276675;28;20030;-63
2021/04/03 09:31:36;;;;;;;58.28;20.60;;;11.10;90.90;;;;;;8297510;28;20511;-63
2021/04/03 09:35:37;;;;;;;58.67;21.23;;;10.60;90.70;;;;;;8277251;28;20404;-63
2021/04/03 09:39:45;;;;;;;58.00;20.80;;;10.40;93.30;;;;;;8295744;28;20093;-60
2021/04/03 09:43:46;;;;;;;60.10;21.17;;;10.70;95.30;;;;;;8278177;28;20779;-63
2021/04/03 09:47:46;;;;;;;61.22;21.77;;;11.30;95.80;;;;;;8273954;28;20094;-63
2021/04/03 09:51:47;;;;;;;61.45;21.45;;;12.00;94.10;;;;;;8294342;28;20404;-63
2021/04/03 09:55:47;;;;;;;60.55;21.50;;;12.40;91.40;;;;;;8295493;28;20029;-63
2021/04/03 09:59:48;;;;;;;60.85;21.48;;;12.30;91.70;;;;;;8295142;28;20040;-63
2021/04/03 10:03:48;;;;;;;60.08;21.30;;;12.00;91.00;;;;;;8277255;28;20021;-63
2021/04/03 10:07:49;;;;;;;59.65;21.17;;;11.60;90.90;;;;;;8295497;28;20081;-63
2021/04/03 10:11:51;;;;;;;59.95;21.15;;;11.50;91.10;;;;;;8291589;28;20030;-63
2021/04/03 10:15:52;;;;;;;59.03;21.30;;;11.30;89.90;;;;;;8289919;28;20064;-63
2021/04/03 10:19:52;;;;;;;60.03;21.55;;;10.80;87.10;;;;;;8284784;28;20030;-62
2021/04/03 10:23:53;;;;;;;72.55;23.55;;;10.40;90.70;;;;;;8288815;28;20126;-63
2021/04/03 10:27:54;;;;;;;71.65;22.92;;;10.20;92.20;;;;;;8274966;28;20057;-63
2021/04/03 10:31:55;;;;;;;72.25;23.20;;;10.40;92.00;;;;;;8276256;28;20030;-63
2021/04/03 10:35:56;;;;;;;72.15;22.85;;;10.70;92.30;;;;;;8292950;28;20033;-63
2021/04/03 10:39:56;;;;;;;73.68;23.35;;;11.10;93.20;;;;;;8290336;28;20461;-63
2021/04/03 10:43:57;;;;;;;75.32;23.35;;;11.40;91.10;;;;;;8280894;28;20029;-63
2021/04/03 10:47:57;;;;;;;75.28;23.48;;;11.80;92.10;;;;;;8290261;28;20286;-63
2021/04/03 10:51:59;;;;;;;76.70;24.08;;;12.20;89.30;;;;;;8291505;28;20030;-63
2021/04/03 10:55:59;;;;;;;74.50;23.65;;;12.40;87.20;;;;;;8289611;28;20034;-63
2021/04/03 11:00:00;;;;;;;72.85;23.25;;;11.70;86.90;;;;;;8274709;28;20092;-63
2021/04/03 11:04:08;;;;;;;73.53;23.75;;;11.00;89.20;;;;;;8439977;27;20421;-64
2021/04/03 11:08:08;;;;;;;73.10;23.58;;;10.80;89.90;;;;;;8414077;28;20512;-64
2021/04/03 11:12:09;;;;;;;76.53;24.77;;;11.00;86.40;;;;;;8416037;28;20036;-65
2021/04/03 11:16:10;;;;;;;71.85;23.27;;;13.40;86.20;;;;;;8423607;28;20020;-65
2021/04/03 11:20:12;;;;;;;92.63;27.08;;;18.40;69.60;;;;;;8418599;28;20510;-63
2021/04/03 11:24:12;;;;;;;78.97;24.85;;;22.30;53.10;;;;;;8420125;28;20031;-63
2021/04/03 11:28:13;;;;;;;87.45;25.77;;;23.90;43.30;;;;;;8422747;28;20402;-63
2021/04/03 11:32:14;;;;;;;78.32;24.85;;;21.70;43.80;;;;;;8422261;28;20078;-63
2021/04/03 11:36:14;;;;;;;69.78;23.15;;;18.90;49.30;;;;;;8423014;28;20121;-63
2021/04/03 11:40:17;;;;;;;71.82;23.65;;;16.90;54.10;;;;;;8422020;28;20034;-64
2021/04/03 11:44:17;;;;;;;68.68;22.58;;;15.30;55.50;;;;;;8420429;28;20641;-64
2021/04/03 11:48:18;;;;;;;69.68;22.65;;;14.30;59.00;;;;;;8422237;28;20104;-63
2021/04/03 11:52:19;;;;;;;69.93;23.63;;;13.60;61.90;;;;;;8418171;28;20162;-63
2021/04/03 11:56:20;;;;;;;66.78;22.45;;;13.00;63.50;;;;;;8419941;28;20503;-64
2021/04/03 12:00:21;;;;;;;59.55;21.17;;;12.90;64.20;;;;;;8420036;28;20037;-64
2021/04/03 12:04:22;;;;;;;72.25;23.10;;;13.40;66.40;;;;;;8452781;28;20028;-65
2021/04/03 12:08:22;;;;;;;86.78;24.77;;;19.20;55.50;;;;;;8446108;28;20040;-63
2021/04/03 12:12:23;;;;;;;94.95;26.80;;;24.00;42.60;;;;;;8445696;28;20061;-63
2021/04/03 12:16:23;;;;;;;84.93;25.30;;;24.80;40.50;;;;;;8424263;28;20401;-63
2021/04/03 12:20:24;;;;;;;93.40;25.70;;;24.40;34.90;;;;;;8427776;28;20045;-65
2021/04/03 12:24:25;;;;;;;82.55;23.98;;;21.80;41.20;;;;;;8411866;28;20563;-68
2021/04/03 12:28:25;;;;;;;77.90;24.02;;;18.20;46.00;;;;;;8429020;28;20043;-66
2021/04/03 12:32:26;;;;;;;75.53;23.98;;;15.40;52.10;;;;;;8427609;28;20032;-67
2021/04/03 12:36:26;;;;;;;71.00;22.83;;;13.90;55.70;;;;;;8429223;28;20028;-67
2021/04/03 12:40:27;;;;;;;70.13;22.75;;;12.60;59.30;;;;;;8428426;28;20045;-68
2021/04/03 12:44:28;;;;;;;65.18;21.90;;;12.00;61.40;;;;;;8427748;28;20095;-67
2021/04/03 12:48:28;;;;;;;66.32;22.33;;;11.50;62.50;;;;;;8410174;28;20046;-66
2021/04/03 12:52:29;;;;;;;64.55;21.58;;;11.40;66.80;;;;;;8427378;28;20021;-66
2021/04/03 12:56:30;;;;;;;65.18;22.10;;;11.30;65.20;;;;;;8428511;28;20069;-66
2021/04/03 13:00:31;;;;;;;65.72;22.08;;;11.20;67.70;;;;;;8427861;28;20032;-66
2021/04/03 13:04:31;;;;;;;64.93;22.23;;;11.10;70.00;;;;;;8426251;28;20111;-67
2021/04/03 13:08:32;;;;;;;65.10;21.75;;;11.30;69.60;;;;;;8428070;28;20024;-65
2021/04/03 13:12:33;;;;;;;70.25;23.02;;;11.90;78.20;;;;;;8427507;28;20042;-66
2021/04/03 13:16:33;;;;;;;66.43;22.10;;;12.40;64.00;;;;;;8408300;28;20208;-66
2021/04/03 13:20:35;;;;;;;67.65;22.63;;;12.00;63.90;;;;;;8427095;28;20080;-67
2021/04/03 13:24:35;;;;;;;68.38;22.75;;;12.30;66.00;;;;;;8426464;28;20020;-67
2021/04/03 13:28:36;;;;;;;61.17;21.92;;;13.10;63.50;;;;;;8437342;28;20581;-66
2021/04/03 13:32:37;;;;;;;57.75;20.80;;;12.50;59.00;;;;;;8428563;28;20069;-67
2021/04/03 13:36:38;;;;;;;57.33;20.92;;;11.70;63.10;;;;;;8455323;28;20077;-67
2021/04/03 13:40:38;;;;;;;49.97;19.58;;;11.50;66.90;;;;;;8455587;28;20031;-67
2021/04/03 13:44:39;;;;;;;54.67;20.70;;;10.80;66.30;;;;;;8448156;28;20036;-68
2021/04/03 13:48:39;;;;;;;54.72;20.63;;;10.70;68.30;;;;;;8417271;28;20095;-68
2021/04/03 13:52:40;;;;;;;53.67;20.20;;;10.60;69.50;;;;;;8409722;28;20032;-67
2021/04/03 13:56:41;;;;;;;51.90;20.30;;;10.80;68.90;;;;;;8423809;28;20032;-66
2021/04/03 14:00:41;;;;;;;51.60;19.95;;;10.10;68.20;;;;;;8427897;28;20065;-67
2021/04/03 14:04:42;;;;;;;51.22;19.60;;;10.30;70.00;;;;;;8426865;28;20024;-68
2021/04/03 14:08:42;;;;;;;52.40;19.77;;;10.50;67.30;;;;;;8457698;28;20067;-68
2021/04/03 14:12:43;;;;;;;52.60;20.08;;;10.70;69.10;;;;;;8440149;28;20524;-68
2021/04/03 14:16:43;;;;;;;52.92;20.27;;;10.80;68.20;;;;;;8457727;28;20047;-67
2021/04/03 14:20:44;;;;;;;52.05;20.05;;;11.00;68.10;;;;;;8452253;28;20039;-68
2021/04/03 14:24:45;;;;;;;52.25;20.05;;;11.30;67.30;;;;;;8442410;28;20049;-67
2021/04/03 14:28:46;;;;;;;52.47;20.10;;;11.50;64.90;;;;;;8436691;28;20023;-67
2021/04/03 14:32:47;;;;;;;64.88;21.92;;;11.70;65.40;;;;;;8441550;28;20179;-68
2021/04/03 14:36:47;;;;;;;46.45;19.63;;;16.90;58.30;;;;;;8441378;28;20076;-68
2021/04/03 14:40:48;;;;;;;90.65;25.35;;;22.00;43.30;;;;;;8454002;28;20032;-68
2021/04/03 14:44:48;;;;;;;84.40;24.50;;;22.50;41.40;;;;;;8458290;28;20036;-67
2021/04/03 14:48:49;;;;;;;81.50;24.60;;;20.90;39.50;;;;;;8440748;28;20057;-68
2021/04/03 14:52:50;;;;;;;78.65;24.15;;;18.50;44.50;;;;;;8435608;28;20031;-68
2021/04/03 14:56:50;;;;;;;76.50;23.90;;;16.50;47.80;;;;;;8458360;28;20512;-68
2021/04/03 15:00:51;;;;;;;73.60;23.52;;;15.60;51.00;;;;;;8455554;28;20416;-68
2021/04/03 15:04:51;;;;;;;68.57;22.77;;;14.50;54.10;;;;;;8455609;28;20035;-67
2021/04/03 15:08:52;;;;;;;68.05;22.63;;;13.30;55.40;;;;;;8458036;28;20752;-68
2021/04/03 15:12:53;;;;;;;61.70;22.08;;;12.50;60.90;;;;;;8418897;28;20077;-67
2021/04/03 15:16:54;;;;;;;56.22;20.27;;;11.80;58.70;;;;;;8420670;28;20521;-67
2021/04/03 15:20:54;;;;;;;54.90;20.33;;;11.10;59.20;;;;;;8412218;28;20019;-67
2021/04/03 15:24:55;;;;;;;55.25;20.65;;;10.50;63.60;;;;;;8427195;28;20076;-67
2021/04/03 15:28:56;;;;;;;54.47;20.25;;;10.30;65.80;;;;;;8416727;28;20447;-66
2021/04/03 15:32:56;;;;;;;53.30;20.00;;;10.20;67.60;;;;;;8454146;28;20098;-66
2021/04/03 15:36:57;;;;;;;55.60;20.55;;;10.00;68.10;;;;;;8455754;28;20115;-66
2021/04/03 15:40:57;;;;;;;56.53;21.35;;;10.00;73.30;;;;;;8454602;28;20043;-65
2021/04/03 15:44:58;;;;;;;56.03;20.75;;;10.10;72.10;;;;;;8451413;28;20020;-68
2021/04/03 15:48:59;;;;;;;56.70;21.00;;;10.20;72.00;;;;;;8443212;28;20016;-68
2021/04/03 15:52:59;;;;;;;57.13;21.45;;;10.30;72.20;;;;;;8463465;28;20089;-68
2021/04/03 15:57:01;;;;;;;54.70;20.50;;;10.60;74.00;;;;;;8457234;28;20038;-67
2021/04/03 16:01:02;;;;;;;55.83;20.40;;;10.90;71.70;;;;;;8443142;28;20039;-68
2021/04/03 16:05:03;;;;;;;57.10;21.08;;;11.10;69.40;;;;;;8457234;28;20051;-68
2021/04/03 16:09:03;;;;;;;57.50;20.90;;;11.40;68.40;;;;;;8463405;28;20434;-68
2021/04/03 16:13:04;;;;;;;58.30;21.40;;;11.40;67.60;;;;;;8461596;28;20027;-67
2021/04/03 16:17:06;;;;;;;59.08;21.58;;;11.50;67.60;;;;;;8453990;28;20070;-67
2021/04/03 16:21:06;;;;;;;62.28;21.67;;;11.60;66.50;;;;;;8441891;28;20016;-67
2021/04/03 16:25:08;;;;;;;59.53;21.85;;;12.80;63.10;;;;;;8442559;28;20020;-68
2021/04/03 16:29:09;;;;;;;59.03;21.65;;;13.10;62.20;;;;;;8455971;28;20012;-67
2021/04/03 16:33:10;;;;;;;57.60;21.50;;;12.80;62.50;;;;;;8459673;28;20098;-68
2021/04/03 16:37:10;;;;;;;55.80;20.83;;;12.20;65.40;;;;;;8458604;28;20030;-67
2021/04/03 16:41:11;;;;;;;54.92;20.85;;;11.60;65.10;;;;;;8460834;28;20157;-66
2021/04/03 16:45:12;;;;;;;51.13;20.00;;;11.00;66.80;;;;;;8460540;28;20058;-66
2021/04/03 16:49:13;;;;;;;53.05;20.48;;;10.40;67.40;;;;;;8441920;28;20179;-69
2021/04/03 16:53:14;;;;;;;51.53;20.25;;;9.70;72.20;;;;;;8455967;28;20072;-67
2021/04/03 16:57:14;;;;;;;53.00;19.95;;;9.60;71.10;;;;;;8442033;28;20088;-65
2021/04/03 17:01:15;;;;;;;43.72;18.48;;;9.30;73.10;;;;;;8454258;28;20074;-66
2021/04/03 17:05:15;;;;;;;48.13;19.55;;;9.20;73.20;;;;;;8427897;28;20036;-66
2021/04/03 17:09:16;;;;;;;49.90;19.90;;;9.00;78.70;;;;;;8424275;28;20019;-64
2021/04/03 17:13:17;;;;;;;49.00;19.40;;;8.70;79.80;;;;;;8429256;28;20067;-66
2021/04/03 17:17:18;;;;;;;49.70;20.15;;;8.30;84.70;;;;;;8428795;28;20035;-66
2021/04/03 17:21:19;;;;;;;49.65;19.70;;;8.10;87.70;;;;;;8408769;28;20043;-65
2021/04/03 17:25:19;;;;;;;49.67;19.45;;;8.10;88.90;;;;;;8434703;28;20512;-67
2021/04/03 17:29:20;;;;;;;49.08;19.63;;;8.00;85.70;;;;;;8455075;28;20028;-65
2021/04/03 17:33:20;;;;;;;49.08;19.70;;;8.00;86.30;;;;;;8427157;28;20547;-65
2021/04/03 17:37:21;;;;;;;48.65;19.25;;;7.90;89.50;;;;;;8422925;28;20036;-65
2021/04/03 17:41:22;;;;;;;49.83;19.67;;;7.80;91.60;;;;;;8426194;28;20112;-65
2021/04/03 17:45:22;;;;;;;49.08;19.35;;;7.70;91.90;;;;;;8427373;28;20028;-67
2021/04/03 17:49:23;;;;;;;48.17;18.88;;;7.50;93.60;;;;;;8427202;28;20476;-65
2021/04/03 17:53:23;;;;;;;48.13;18.95;;;7.40;95.80;;;;;;8425055;28;20031;-65
2021/04/03 17:57:24;;;;;;;49.50;19.27;;;7.20;96.70;;;;;;8416770;28;20113;-65
2021/04/03 18:01:25;;;;;;;50.05;19.48;;;7.10;97.20;;;;;;8423963;28;20039;-65
2021/04/03 18:05:25;;;;;;;50.42;19.30;;;7.10;97.10;;;;;;8404768;28;20040;-65
2021/04/03 18:09:26;;;;;;;49.38;18.92;;;7.00;97.20;;;;;;8421073;28;20035;-65
2021/04/03 18:13:26;;;;;;;49.08;18.83;;;7.00;99.40;;;;;;8420284;28;20047;-65
2021/04/03 18:17:27;;;;;;;50.55;19.30;;;7.00;99.40;;;;;;8422065;28;20032;-65
2021/04/03 18:21:29;;;;;;;51.08;19.17;;;6.80;99.90;;;;;;8423366;28;20456;-65
2021/04/03 18:25:29;;;;;;;50.67;18.80;;;6.70;99.90;;;;;;8405260;28;20031;-65
2021/04/03 18:29:30;;;;;;;51.42;19.13;;;6.70;99.80;;;;;;8422983;28;20032;-65
2021/04/03 18:33:31;;;;;;;52.70;19.50;;;6.80;99.90;;;;;;8422803;28;20068;-65
2021/04/03 18:37:33;;;;;;;53.20;19.52;;;6.60;98.80;;;;;;8422272;28;20028;-65
2021/04/03 18:41:33;;;;;;;52.80;19.25;;;6.70;99.00;;;;;;8405038;28;20035;-65
2021/04/03 18:45:34;;;;;;;55.00;20.15;;;6.50;99.20;;;;;;8419874;28;20024;-65
2021/04/03 18:49:35;;;;;;;55.38;19.50;;;6.20;99.50;;;;;;8422860;28;20032;-65
2021/04/03 18:53:35;;;;;;;55.58;19.60;;;5.80;99.90;;;;;;8422063;28;20032;-65
2021/04/03 18:57:36;;;;;;;55.85;19.67;;;5.60;99.90;;;;;;8403709;28;20038;-65
2021/04/03 19:01:38;;;;;;;56.67;20.00;;;5.50;99.90;;;;;;8422784;28;20421;-65
2021/04/03 19:05:39;;;;;;;58.08;19.67;;;5.30;99.90;;;;;;8422684;28;20086;-65
2021/04/03 19:09:39;;;;;;;60.22;20.15;;;5.30;99.90;;;;;;8421555;28;20028;-65
2021/04/03 19:13:40;;;;;;;60.53;20.08;;;5.50;99.90;;;;;;8417185;28;20453;-66
2021/04/03 19:17:40;;;;;;;60.65;20.55;;;5.40;99.90;;;;;;8403718;28;20048;-64
2021/04/03 19:21:41;;;;;;;60.70;20.00;;;5.40;99.90;;;;;;8403629;28;20522;-64
2021/04/03 19:25:41;;;;;;;60.65;20.05;;;5.30;99.90;;;;;;8427976;28;20024;-65
2021/04/03 19:29:42;;;;;;;60.45;20.17;;;5.30;99.90;;;;;;8428626;28;20016;-65
2021/04/03 19:33:43;;;;;;;59.97;20.30;;;5.20;99.90;;;;;;8428350;28;20036;-65
2021/04/03 19:37:44;;;;;;;61.08;20.38;;;5.10;99.90;;;;;;8428332;28;20028;-64
2021/04/03 19:41:44;;;;;;;61.35;20.40;;;5.10;99.90;;;;;;8427883;28;20122;-65
2021/04/03 19:45:45;;;;;;;61.58;20.42;;;4.90;99.90;;;;;;8428771;28;20109;-65
2021/04/03 19:49:45;;;;;;;63.35;20.63;;;4.90;99.90;;;;;;8428627;28;20397;-65
2021/04/03 19:53:46;;;;;;;62.38;20.55;;;5.20;99.90;;;;;;8410136;28;20093;-65
2021/04/03 19:57:47;;;;;;;61.70;20.30;;;5.10;99.90;;;;;;8427949;28;20063;-65
2021/04/03 20:01:47;;;;;;;66.07;21.30;;;4.90;99.90;;;;;;8427143;28;20043;-65
2021/04/03 20:05:50;;;;;;;67.03;20.75;;;5.20;99.90;;;;;;8408554;28;20509;-65
2021/04/03 20:09:51;;;;;;;66.53;20.70;;;5.10;99.90;;;;;;8427326;28;20016;-65
2021/04/03 20:13:52;;;;;;;66.43;20.98;;;4.80;99.90;;;;;;8426235;28;20035;-65
2021/04/03 20:17:52;;;;;;;66.03;20.73;;;4.70;99.90;;;;;;8427277;28;20024;-65
2021/04/03 20:21:54;;;;;;;66.30;20.85;;;4.60;99.90;;;;;;8426290;28;20118;-65
2021/04/03 20:25:54;;;;;;;67.68;20.90;;;4.60;99.90;;;;;;8408191;28;20505;-65
2021/04/03 20:29:55;;;;;;;69.00;21.10;;;4.50;99.90;;;;;;8427181;28;20024;-64
2021/04/03 20:33:55;;;;;;;68.80;21.08;;;4.60;99.90;;;;;;8425983;28;20117;-65
2021/04/03 20:37:56;;;;;;;68.25;20.80;;;4.30;99.90;;;;;;8425754;28;20093;-65